Terminal Aerodrome Forecast
Issued by NWS Sterling, VA

Current Version | Previous Version | Text Only | Print | Product List | Glossary Off
Versions: 1 2 3 4 5 6 7 8 9 10 11 12 13 14 15 16 17 18 19 20 21 22 23 24 25 26 27

000
FTUS41 KLWX 171500 AAA
TAFIAD
TAF AMD
KIAD 171508Z 1715/1818 09008KT P6SM FEW035 SCT250
     FM172000 11011KT P6SM SCT035 BKN250
     FM180400 11007KT P6SM BKN025
     FM180700 VRB03KT P6SM BKN025
     FM181500 06004KT P6SM OVC050=

USA.gov is the U.S. government's official web portal to all federal, state and local government web resources and services.